sensor_id;sensor_type;location;lat;lon;timestamp;P1;durP1;ratioP1;P2;durP2;ratioP2
36001;SDS011;22070;50.922;5.430;2023-04-23T00:01:37;28.85;;;19.38;;
36001;SDS011;22070;50.922;5.430;2023-04-23T00:04:07;33.15;;;19.17;;
36001;SDS011;22070;50.922;5.430;2023-04-23T00:06:34;29.10;;;19.40;;
36001;SDS011;22070;50.922;5.430;2023-04-23T00:11:26;30.37;;;18.30;;
36001;SDS011;22070;50.922;5.430;2023-04-23T00:13:52;29.30;;;19.83;;
36001;SDS011;22070;50.922;5.430;2023-04-23T00:16:18;28.65;;;19.08;;
36001;SDS011;22070;50.922;5.430;2023-04-23T00:18:45;30.52;;;19.65;;
36001;SDS011;22070;50.922;5.430;2023-04-23T00:21:11;29.88;;;19.55;;
36001;SDS011;22070;50.922;5.430;2023-04-23T00:23:38;32.25;;;19.25;;
36001;SDS011;22070;50.922;5.430;2023-04-23T00:26:04;28.92;;;19.17;;
36001;SDS011;22070;50.922;5.430;2023-04-23T00:28:30;29.83;;;19.60;;
36001;SDS011;22070;50.922;5.430;2023-04-23T00:30:55;30.83;;;20.10;;
36001;SDS011;22070;50.922;5.430;2023-04-23T00:33:21;31.30;;;19.07;;
36001;SDS011;22070;50.922;5.430;2023-04-23T00:35:47;28.47;;;19.30;;
36001;SDS011;22070;50.922;5.430;2023-04-23T00:38:12;26.90;;;19.08;;
36001;SDS011;22070;50.922;5.430;2023-04-23T00:40:38;29.77;;;20.33;;
36001;SDS011;22070;50.922;5.430;2023-04-23T00:43:04;30.10;;;18.83;;
36001;SDS011;22070;50.922;5.430;2023-04-23T00:45:31;28.33;;;19.27;;
36001;SDS011;22070;50.922;5.430;2023-04-23T00:47:57;34.55;;;19.65;;
36001;SDS011;22070;50.922;5.430;2023-04-23T00:50:23;29.40;;;19.23;;
36001;SDS011;22070;50.922;5.430;2023-04-23T00:52:48;30.38;;;19.45;;
36001;SDS011;22070;50.922;5.430;2023-04-23T00:55:14;28.73;;;19.63;;
36001;SDS011;22070;50.922;5.430;2023-04-23T00:57:40;29.02;;;18.30;;
36001;SDS011;22070;50.922;5.430;2023-04-23T01:00:06;27.95;;;18.88;;
36001;SDS011;22070;50.922;5.430;2023-04-23T01:02:33;30.60;;;20.10;;
36001;SDS011;22070;50.922;5.430;2023-04-23T01:05:01;26.63;;;17.52;;
36001;SDS011;22070;50.922;5.430;2023-04-23T01:07:28;30.02;;;18.90;;
36001;SDS011;22070;50.922;5.430;2023-04-23T01:12:21;30.47;;;19.03;;
36001;SDS011;22070;50.922;5.430;2023-04-23T01:14:47;30.17;;;19.05;;
36001;SDS011;22070;50.922;5.430;2023-04-23T01:17:13;25.92;;;18.33;;
36001;SDS011;22070;50.922;5.430;2023-04-23T01:19:39;27.70;;;19.52;;
36001;SDS011;22070;50.922;5.430;2023-04-23T01:22:11;26.67;;;18.23;;
36001;SDS011;22070;50.922;5.430;2023-04-23T01:24:38;30.23;;;18.88;;
36001;SDS011;22070;50.922;5.430;2023-04-23T01:27:06;28.95;;;19.02;;
36001;SDS011;22070;50.922;5.430;2023-04-23T01:29:32;31.52;;;18.58;;
36001;SDS011;22070;50.922;5.430;2023-04-23T01:31:59;28.98;;;18.30;;
36001;SDS011;22070;50.922;5.430;2023-04-23T01:34:25;30.02;;;18.75;;
36001;SDS011;22070;50.922;5.430;2023-04-23T01:36:51;31.08;;;19.75;;
36001;SDS011;22070;50.922;5.430;2023-04-23T01:39:18;26.30;;;18.60;;
36001;SDS011;22070;50.922;5.430;2023-04-23T01:41:44;29.05;;;18.52;;
36001;SDS011;22070;50.922;5.430;2023-04-23T01:44:11;25.70;;;17.45;;
36001;SDS011;22070;50.922;5.430;2023-04-23T01:46:37;27.42;;;17.98;;
36001;SDS011;22070;50.922;5.430;2023-04-23T01:49:02;28.37;;;17.77;;
36001;SDS011;22070;50.922;5.430;2023-04-23T01:51:28;25.88;;;18.05;;
36001;SDS011;22070;50.922;5.430;2023-04-23T01:53:54;25.67;;;17.00;;
36001;SDS011;22070;50.922;5.430;2023-04-23T01:56:22;28.15;;;17.60;;
36001;SDS011;22070;50.922;5.430;2023-04-23T01:58:51;24.48;;;17.17;;
36001;SDS011;22070;50.922;5.430;2023-04-23T02:01:16;25.40;;;17.52;;
36001;SDS011;22070;50.922;5.430;2023-04-23T02:03:42;31.75;;;19.35;;
36001;SDS011;22070;50.922;5.430;2023-04-23T02:06:09;26.33;;;18.67;;
36001;SDS011;22070;50.922;5.430;2023-04-23T02:08:34;26.23;;;18.27;;
36001;SDS011;22070;50.922;5.430;2023-04-23T02:11:00;27.77;;;19.05;;
36001;SDS011;22070;50.922;5.430;2023-04-23T02:13:26;26.10;;;17.80;;
36001;SDS011;22070;50.922;5.430;2023-04-23T02:15:52;30.33;;;19.55;;
36001;SDS011;22070;50.922;5.430;2023-04-23T02:18:18;29.27;;;19.90;;
36001;SDS011;22070;50.922;5.430;2023-04-23T02:20:43;28.93;;;19.03;;
36001;SDS011;22070;50.922;5.430;2023-04-23T02:23:09;26.98;;;19.27;;
36001;SDS011;22070;50.922;5.430;2023-04-23T02:25:35;29.37;;;19.37;;
36001;SDS011;22070;50.922;5.430;2023-04-23T02:28:03;26.80;;;18.45;;
36001;SDS011;22070;50.922;5.430;2023-04-23T02:30:31;26.17;;;18.13;;
36001;SDS011;22070;50.922;5.430;2023-04-23T02:33:01;28.40;;;18.35;;
36001;SDS011;22070;50.922;5.430;2023-04-23T02:35:27;25.75;;;18.15;;
36001;SDS011;22070;50.922;5.430;2023-04-23T02:37:53;26.40;;;17.47;;
36001;SDS011;22070;50.922;5.430;2023-04-23T02:40:20;26.23;;;17.65;;
36001;SDS011;22070;50.922;5.430;2023-04-23T02:42:45;27.30;;;17.67;;
36001;SDS011;22070;50.922;5.430;2023-04-23T02:45:11;19.60;;;13.33;;
36001;SDS011;22070;50.922;5.430;2023-04-23T02:47:37;26.23;;;17.35;;
36001;SDS011;22070;50.922;5.430;2023-04-23T02:50:04;24.87;;;16.63;;
36001;SDS011;22070;50.922;5.430;2023-04-23T02:52:30;25.60;;;17.45;;
36001;SDS011;22070;50.922;5.430;2023-04-23T02:54:57;32.97;;;17.80;;
36001;SDS011;22070;50.922;5.430;2023-04-23T02:57:23;30.85;;;17.48;;
36001;SDS011;22070;50.922;5.430;2023-04-23T02:59:49;25.58;;;17.10;;
36001;SDS011;22070;50.922;5.430;2023-04-23T03:02:14;23.80;;;16.55;;
36001;SDS011;22070;50.922;5.430;2023-04-23T03:04:40;25.08;;;16.58;;
36001;SDS011;22070;50.922;5.430;2023-04-23T03:07:06;26.57;;;17.43;;
36001;SDS011;22070;50.922;5.430;2023-04-23T03:09:32;27.13;;;16.77;;
36001;SDS011;22070;50.922;5.430;2023-04-23T03:11:58;25.77;;;16.70;;
36001;SDS011;22070;50.922;5.430;2023-04-23T03:14:23;24.85;;;16.60;;
36001;SDS011;22070;50.922;5.430;2023-04-23T03:16:49;26.52;;;16.58;;
36001;SDS011;22070;50.922;5.430;2023-04-23T03:19:15;27.83;;;16.58;;
36001;SDS011;22070;50.922;5.430;2023-04-23T03:24:07;24.47;;;15.57;;
36001;SDS011;22070;50.922;5.430;2023-04-23T03:26:34;24.23;;;16.45;;
36001;SDS011;22070;50.922;5.430;2023-04-23T03:29:00;23.73;;;15.60;;
36001;SDS011;22070;50.922;5.430;2023-04-23T03:31:25;16.92;;;11.55;;
36001;SDS011;22070;50.922;5.430;2023-04-23T03:33:51;26.97;;;16.03;;
36001;SDS011;22070;50.922;5.430;2023-04-23T03:36:16;17.67;;;11.68;;
36001;SDS011;22070;50.922;5.430;2023-04-23T03:38:42;23.30;;;15.90;;
36001;SDS011;22070;50.922;5.430;2023-04-23T03:41:08;22.88;;;15.40;;
36001;SDS011;22070;50.922;5.430;2023-04-23T03:43:33;24.65;;;15.50;;
36001;SDS011;22070;50.922;5.430;2023-04-23T03:45:59;22.03;;;15.03;;
36001;SDS011;22070;50.922;5.430;2023-04-23T03:48:25;21.35;;;14.70;;
36001;SDS011;22070;50.922;5.430;2023-04-23T03:50:50;21.90;;;14.40;;
36001;SDS011;22070;50.922;5.430;2023-04-23T03:53:16;14.17;;;10.83;;
36001;SDS011;22070;50.922;5.430;2023-04-23T03:55:42;20.58;;;13.20;;
36001;SDS011;22070;50.922;5.430;2023-04-23T03:58:08;17.80;;;12.85;;
36001;SDS011;22070;50.922;5.430;2023-04-23T04:00:33;20.02;;;14.07;;
36001;SDS011;22070;50.922;5.430;2023-04-23T04:02:59;19.85;;;14.05;;
36001;SDS011;22070;50.922;5.430;2023-04-23T04:05:26;25.02;;;13.85;;
36001;SDS011;22070;50.922;5.430;2023-04-23T04:07:52;21.13;;;13.75;;
36001;SDS011;22070;50.922;5.430;2023-04-23T04:10:18;18.47;;;13.40;;
36001;SDS011;22070;50.922;5.430;2023-04-23T04:12:43;22.17;;;12.70;;
36001;SDS011;22070;50.922;5.430;2023-04-23T04:15:11;16.92;;;12.43;;
36001;SDS011;22070;50.922;5.430;2023-04-23T04:17:38;19.10;;;12.75;;
36001;SDS011;22070;50.922;5.430;2023-04-23T04:20:04;17.48;;;12.35;;
36001;SDS011;22070;50.922;5.430;2023-04-23T04:22:32;16.10;;;11.85;;
36001;SDS011;22070;50.922;5.430;2023-04-23T04:24:58;17.60;;;11.93;;
36001;SDS011;22070;50.922;5.430;2023-04-23T04:27:23;19.00;;;12.33;;
36001;SDS011;22070;50.922;5.430;2023-04-23T04:29:49;18.92;;;12.38;;
36001;SDS011;22070;50.922;5.430;2023-04-23T04:32:15;15.30;;;11.45;;
36001;SDS011;22070;50.922;5.430;2023-04-23T04:34:41;14.77;;;11.37;;
36001;SDS011;22070;50.922;5.430;2023-04-23T04:37:07;14.23;;;11.37;;
36001;SDS011;22070;50.922;5.430;2023-04-23T04:39:34;16.33;;;11.68;;
36001;SDS011;22070;50.922;5.430;2023-04-23T04:42:00;16.10;;;10.85;;
36001;SDS011;22070;50.922;5.430;2023-04-23T04:44:27;19.27;;;11.73;;
36001;SDS011;22070;50.922;5.430;2023-04-23T04:46:53;14.93;;;11.25;;
36001;SDS011;22070;50.922;5.430;2023-04-23T04:49:18;13.80;;;10.13;;
36001;SDS011;22070;50.922;5.430;2023-04-23T04:54:11;23.43;;;10.97;;
36001;SDS011;22070;50.922;5.430;2023-04-23T04:56:37;13.65;;;10.60;;
36001;SDS011;22070;50.922;5.430;2023-04-23T04:59:02;14.85;;;10.77;;
36001;SDS011;22070;50.922;5.430;2023-04-23T05:01:28;15.95;;;10.18;;
36001;SDS011;22070;50.922;5.430;2023-04-23T05:03:55;12.95;;;9.98;;
36001;SDS011;22070;50.922;5.430;2023-04-23T05:06:21;16.45;;;10.23;;
36001;SDS011;22070;50.922;5.430;2023-04-23T05:08:46;12.43;;;9.60;;
36001;SDS011;22070;50.922;5.430;2023-04-23T05:11:13;14.45;;;9.68;;
36001;SDS011;22070;50.922;5.430;2023-04-23T05:13:39;15.48;;;9.90;;
36001;SDS011;22070;50.922;5.430;2023-04-23T05:16:05;13.10;;;10.07;;
36001;SDS011;22070;50.922;5.430;2023-04-23T05:18:31;14.05;;;9.57;;
36001;SDS011;22070;50.922;5.430;2023-04-23T05:20:56;15.55;;;9.50;;
36001;SDS011;22070;50.922;5.430;2023-04-23T05:23:22;14.27;;;9.13;;
36001;SDS011;22070;50.922;5.430;2023-04-23T05:25:48;13.70;;;9.03;;
36001;SDS011;22070;50.922;5.430;2023-04-23T05:28:15;15.68;;;9.32;;
36001;SDS011;22070;50.922;5.430;2023-04-23T05:30:41;15.57;;;8.55;;
36001;SDS011;22070;50.922;5.430;2023-04-23T05:33:07;16.43;;;9.00;;
36001;SDS011;22070;50.922;5.430;2023-04-23T05:35:33;11.90;;;8.55;;
36001;SDS011;22070;50.922;5.430;2023-04-23T05:37:59;12.48;;;8.25;;
36001;SDS011;22070;50.922;5.430;2023-04-23T05:40:26;11.10;;;8.05;;
36001;SDS011;22070;50.922;5.430;2023-04-23T05:42:52;11.88;;;7.40;;
36001;SDS011;22070;50.922;5.430;2023-04-23T05:45:18;12.23;;;7.53;;
36001;SDS011;22070;50.922;5.430;2023-04-23T05:47:45;10.55;;;7.72;;
36001;SDS011;22070;50.922;5.430;2023-04-23T05:50:10;8.82;;;6.68;;
36001;SDS011;22070;50.922;5.430;2023-04-23T05:52:36;13.23;;;6.68;;
36001;SDS011;22070;50.922;5.430;2023-04-23T05:55:02;11.87;;;6.57;;
36001;SDS011;22070;50.922;5.430;2023-04-23T05:57:28;10.40;;;6.60;;
36001;SDS011;22070;50.922;5.430;2023-04-23T05:59:53;10.68;;;6.40;;
36001;SDS011;22070;50.922;5.430;2023-04-23T06:02:19;12.63;;;7.30;;
36001;SDS011;22070;50.922;5.430;2023-04-23T06:04:45;9.93;;;6.20;;
36001;SDS011;22070;50.922;5.430;2023-04-23T06:07:11;7.53;;;5.70;;
36001;SDS011;22070;50.922;5.430;2023-04-23T06:09:38;13.95;;;6.28;;
36001;SDS011;22070;50.922;5.430;2023-04-23T06:12:03;9.30;;;6.15;;
36001;SDS011;22070;50.922;5.430;2023-04-23T06:14:30;8.63;;;5.90;;
36001;SDS011;22070;50.922;5.430;2023-04-23T06:16:55;7.93;;;5.60;;
36001;SDS011;22070;50.922;5.430;2023-04-23T06:19:21;10.00;;;5.43;;
36001;SDS011;22070;50.922;5.430;2023-04-23T06:21:49;9.18;;;5.50;;
36001;SDS011;22070;50.922;5.430;2023-04-23T06:24:15;10.10;;;5.10;;
36001;SDS011;22070;50.922;5.430;2023-04-23T06:26:41;8.68;;;4.88;;
36001;SDS011;22070;50.922;5.430;2023-04-23T06:29:06;9.10;;;5.32;;
36001;SDS011;22070;50.922;5.430;2023-04-23T06:31:32;10.32;;;5.70;;
36001;SDS011;22070;50.922;5.430;2023-04-23T06:33:58;10.70;;;5.63;;
36001;SDS011;22070;50.922;5.430;2023-04-23T06:36:23;9.38;;;4.93;;
36001;SDS011;22070;50.922;5.430;2023-04-23T06:38:49;7.75;;;4.90;;
36001;SDS011;22070;50.922;5.430;2023-04-23T06:41:14;6.80;;;4.82;;
36001;SDS011;22070;50.922;5.430;2023-04-23T06:43:40;10.32;;;5.47;;
36001;SDS011;22070;50.922;5.430;2023-04-23T06:46:06;5.07;;;3.17;;
36001;SDS011;22070;50.922;5.430;2023-04-23T06:48:32;8.20;;;4.80;;
36001;SDS011;22070;50.922;5.430;2023-04-23T06:50:57;9.27;;;4.83;;
36001;SDS011;22070;50.922;5.430;2023-04-23T06:53:23;7.80;;;4.60;;
36001;SDS011;22070;50.922;5.430;2023-04-23T06:55:49;7.73;;;4.60;;
36001;SDS011;22070;50.922;5.430;2023-04-23T06:58:15;7.85;;;4.85;;
36001;SDS011;22070;50.922;5.430;2023-04-23T07:00:42;7.43;;;4.80;;
36001;SDS011;22070;50.922;5.430;2023-04-23T07:03:08;7.40;;;3.90;;
36001;SDS011;22070;50.922;5.430;2023-04-23T07:05:33;8.20;;;4.63;;
36001;SDS011;22070;50.922;5.430;2023-04-23T07:07:59;9.50;;;4.47;;
36001;SDS011;22070;50.922;5.430;2023-04-23T07:10:25;11.65;;;4.43;;
36001;SDS011;22070;50.922;5.430;2023-04-23T07:12:50;9.43;;;4.60;;
36001;SDS011;22070;50.922;5.430;2023-04-23T07:15:16;11.20;;;4.55;;
36001;SDS011;22070;50.922;5.430;2023-04-23T07:17:41;7.18;;;3.97;;
36001;SDS011;22070;50.922;5.430;2023-04-23T07:20:07;8.57;;;3.57;;
36001;SDS011;22070;50.922;5.430;2023-04-23T07:22:33;10.07;;;4.17;;
36001;SDS011;22070;50.922;5.430;2023-04-23T07:24:59;6.77;;;3.70;;
36001;SDS011;22070;50.922;5.430;2023-04-23T07:27:25;7.90;;;3.92;;
36001;SDS011;22070;50.922;5.430;2023-04-23T07:29:51;6.20;;;3.53;;
36001;SDS011;22070;50.922;5.430;2023-04-23T07:32:16;10.93;;;3.63;;
36001;SDS011;22070;50.922;5.430;2023-04-23T07:34:42;11.95;;;3.95;;
36001;SDS011;22070;50.922;5.430;2023-04-23T07:37:08;7.75;;;3.17;;
36001;SDS011;22070;50.922;5.430;2023-04-23T07:39:34;7.93;;;3.03;;
36001;SDS011;22070;50.922;5.430;2023-04-23T07:42:00;8.07;;;3.40;;
36001;SDS011;22070;50.922;5.430;2023-04-23T07:44:28;9.38;;;3.25;;
36001;SDS011;22070;50.922;5.430;2023-04-23T07:46:54;6.38;;;3.10;;
36001;SDS011;22070;50.922;5.430;2023-04-23T07:49:19;8.40;;;3.13;;
36001;SDS011;22070;50.922;5.430;2023-04-23T07:51:45;9.37;;;3.67;;
36001;SDS011;22070;50.922;5.430;2023-04-23T07:54:12;8.27;;;2.92;;
36001;SDS011;22070;50.922;5.430;2023-04-23T07:56:38;7.10;;;2.80;;
36001;SDS011;22070;50.922;5.430;2023-04-23T07:59:03;7.35;;;2.83;;
36001;SDS011;22070;50.922;5.430;2023-04-23T08:01:31;6.15;;;2.92;;
36001;SDS011;22070;50.922;5.430;2023-04-23T08:03:57;7.63;;;3.35;;
36001;SDS011;22070;50.922;5.430;2023-04-23T08:06:24;9.77;;;3.28;;
36001;SDS011;22070;50.922;5.430;2023-04-23T08:08:51;7.22;;;2.95;;
36001;SDS011;22070;50.922;5.430;2023-04-23T08:11:17;9.52;;;2.65;;
36001;SDS011;22070;50.922;5.430;2023-04-23T08:13:43;7.93;;;2.93;;
36001;SDS011;22070;50.922;5.430;2023-04-23T08:16:09;9.43;;;2.70;;
36001;SDS011;22070;50.922;5.430;2023-04-23T08:18:34;5.20;;;1.90;;
36001;SDS011;22070;50.922;5.430;2023-04-23T08:21:00;7.33;;;2.80;;
36001;SDS011;22070;50.922;5.430;2023-04-23T08:23:26;14.30;;;2.70;;
36001;SDS011;22070;50.922;5.430;2023-04-23T08:25:51;16.63;;;3.50;;
36001;SDS011;22070;50.922;5.430;2023-04-23T08:28:17;7.37;;;2.63;;
36001;SDS011;22070;50.922;5.430;2023-04-23T08:30:43;7.25;;;3.15;;
36001;SDS011;22070;50.922;5.430;2023-04-23T08:33:09;6.43;;;2.70;;
36001;SDS011;22070;50.922;5.430;2023-04-23T08:35:35;10.53;;;3.00;;
36001;SDS011;22070;50.922;5.430;2023-04-23T08:38:00;6.68;;;2.67;;
36001;SDS011;22070;50.922;5.430;2023-04-23T08:40:27;7.63;;;2.80;;
36001;SDS011;22070;50.922;5.430;2023-04-23T08:43:01;8.43;;;2.72;;
36001;SDS011;22070;50.922;5.430;2023-04-23T08:45:34;8.05;;;3.20;;
36001;SDS011;22070;50.922;5.430;2023-04-23T08:48:05;10.60;;;3.13;;
36001;SDS011;22070;50.922;5.430;2023-04-23T08:50:33;5.38;;;2.20;;
36001;SDS011;22070;50.922;5.430;2023-04-23T08:53:02;7.55;;;2.20;;
36001;SDS011;22070;50.922;5.430;2023-04-23T08:55:31;11.27;;;2.70;;
36001;SDS011;22070;50.922;5.430;2023-04-23T08:57:59;6.78;;;2.90;;
36001;SDS011;22070;50.922;5.430;2023-04-23T09:00:26;5.97;;;2.38;;
36001;SDS011;22070;50.922;5.430;2023-04-23T09:02:52;8.03;;;2.40;;
36001;SDS011;22070;50.922;5.430;2023-04-23T09:05:18;7.47;;;2.53;;
36001;SDS011;22070;50.922;5.430;2023-04-23T09:07:43;6.17;;;2.20;;
36001;SDS011;22070;50.922;5.430;2023-04-23T09:10:10;7.07;;;2.40;;
36001;SDS011;22070;50.922;5.430;2023-04-23T09:12:37;4.32;;;2.40;;
36001;SDS011;22070;50.922;5.430;2023-04-23T09:15:05;9.32;;;2.30;;
36001;SDS011;22070;50.922;5.430;2023-04-23T09:17:35;5.38;;;2.20;;
36001;SDS011;22070;50.922;5.430;2023-04-23T09:20:03;6.28;;;2.47;;
36001;SDS011;22070;50.922;5.430;2023-04-23T09:22:39;5.07;;;2.00;;
36001;SDS011;22070;50.922;5.430;2023-04-23T09:25:17;9.02;;;2.70;;
36001;SDS011;22070;50.922;5.430;2023-04-23T09:27:45;4.10;;;2.25;;
36001;SDS011;22070;50.922;5.430;2023-04-23T09:30:12;4.40;;;2.30;;
36001;SDS011;22070;50.922;5.430;2023-04-23T09:35:06;6.80;;;2.22;;
36001;SDS011;22070;50.922;5.430;2023-04-23T09:37:44;6.18;;;2.45;;
36001;SDS011;22070;50.922;5.430;2023-04-23T09:40:12;4.90;;;1.98;;
36001;SDS011;22070;50.922;5.430;2023-04-23T09:42:39;7.82;;;1.83;;
36001;SDS011;22070;50.922;5.430;2023-04-23T09:45:06;6.90;;;2.20;;
36001;SDS011;22070;50.922;5.430;2023-04-23T09:47:49;4.93;;;1.75;;
36001;SDS011;22070;50.922;5.430;2023-04-23T09:50:19;7.60;;;1.80;;
36001;SDS011;22070;50.922;5.430;2023-04-23T09:53:06;6.80;;;2.10;;
36001;SDS011;22070;50.922;5.430;2023-04-23T09:55:33;4.32;;;1.77;;
36001;SDS011;22070;50.922;5.430;2023-04-23T09:58:20;6.15;;;2.10;;
36001;SDS011;22070;50.922;5.430;2023-04-23T10:03:14;7.40;;;1.80;;
36001;SDS011;22070;50.922;5.430;2023-04-23T10:05:50;4.18;;;1.98;;
36001;SDS011;22070;50.922;5.430;2023-04-23T10:08:19;3.95;;;1.42;;
36001;SDS011;22070;50.922;5.430;2023-04-23T10:10:46;4.20;;;1.40;;
36001;SDS011;22070;50.922;5.430;2023-04-23T10:13:12;7.35;;;1.90;;
36001;SDS011;22070;50.922;5.430;2023-04-23T10:15:38;4.40;;;1.40;;
36001;SDS011;22070;50.922;5.430;2023-04-23T10:18:03;4.60;;;1.47;;
36001;SDS011;22070;50.922;5.430;2023-04-23T10:20:32;6.28;;;1.67;;
36001;SDS011;22070;50.922;5.430;2023-04-23T10:22:59;5.13;;;1.58;;
36001;SDS011;22070;50.922;5.430;2023-04-23T10:25:26;6.85;;;1.63;;
36001;SDS011;22070;50.922;5.430;2023-04-23T10:27:52;4.43;;;1.52;;
36001;SDS011;22070;50.922;5.430;2023-04-23T10:30:20;5.03;;;1.45;;
36001;SDS011;22070;50.922;5.430;2023-04-23T10:32:47;4.10;;;1.30;;
36001;SDS011;22070;50.922;5.430;2023-04-23T10:35:13;5.10;;;1.70;;
36001;SDS011;22070;50.922;5.430;2023-04-23T10:37:38;5.70;;;1.30;;
36001;SDS011;22070;50.922;5.430;2023-04-23T10:42:35;3.95;;;1.35;;
36001;SDS011;22070;50.922;5.430;2023-04-23T10:45:02;7.25;;;1.50;;
36001;SDS011;22070;50.922;5.430;2023-04-23T10:47:37;5.20;;;1.25;;
36001;SDS011;22070;50.922;5.430;2023-04-23T10:50:22;6.77;;;1.97;;
36001;SDS011;22070;50.922;5.430;2023-04-23T10:52:58;5.30;;;1.52;;
36001;SDS011;22070;50.922;5.430;2023-04-23T10:55:26;6.13;;;1.70;;
36001;SDS011;22070;50.922;5.430;2023-04-23T10:57:54;8.80;;;1.35;;
36001;SDS011;22070;50.922;5.430;2023-04-23T11:03:50;6.65;;;1.50;;
36001;SDS011;22070;50.922;5.430;2023-04-23T11:06:03;4.35;;;1.13;;
36001;SDS011;22070;50.922;5.430;2023-04-23T11:08:30;5.72;;;1.48;;
36001;SDS011;22070;50.922;5.430;2023-04-23T11:10:59;5.53;;;1.30;;
36001;SDS011;22070;50.922;5.430;2023-04-23T11:13:26;4.13;;;1.55;;
36001;SDS011;22070;50.922;5.430;2023-04-23T11:24:35;2.65;;;1.10;;
36001;SDS011;22070;50.922;5.430;2023-04-23T11:27:06;5.57;;;1.17;;
36001;SDS011;22070;50.922;5.430;2023-04-23T11:29:34;8.43;;;1.42;;
36001;SDS011;22070;50.922;5.430;2023-04-23T11:32:02;7.05;;;1.30;;
36001;SDS011;22070;50.922;5.430;2023-04-23T11:36:56;3.95;;;1.30;;
36001;SDS011;22070;50.922;5.430;2023-04-23T11:39:23;5.70;;;1.27;;
36001;SDS011;22070;50.922;5.430;2023-04-23T11:41:50;7.53;;;1.20;;
36001;SDS011;22070;50.922;5.430;2023-04-23T11:44:16;3.70;;;1.30;;
36001;SDS011;22070;50.922;5.430;2023-04-23T11:49:10;5.65;;;1.70;;
36001;SDS011;22070;50.922;5.430;2023-04-23T11:51:41;4.28;;;1.60;;
36001;SDS011;22070;50.922;5.430;2023-04-23T11:54:08;5.13;;;1.50;;
36001;SDS011;22070;50.922;5.430;2023-04-23T11:59:01;3.30;;;1.00;;
36001;SDS011;22070;50.922;5.430;2023-04-23T12:04:14;4.32;;;1.30;;
36001;SDS011;22070;50.922;5.430;2023-04-23T12:06:43;3.92;;;1.20;;
36001;SDS011;22070;50.922;5.430;2023-04-23T12:09:11;7.47;;;1.20;;
36001;SDS011;22070;50.922;5.430;2023-04-23T12:11:38;4.93;;;1.40;;
36001;SDS011;22070;50.922;5.430;2023-04-23T12:14:05;3.47;;;1.20;;
36001;SDS011;22070;50.922;5.430;2023-04-23T12:16:36;5.95;;;1.20;;
36001;SDS011;22070;50.922;5.430;2023-04-23T12:19:11;6.97;;;1.40;;
36001;SDS011;22070;50.922;5.430;2023-04-23T12:24:25;4.60;;;1.20;;
36001;SDS011;22070;50.922;5.430;2023-04-23T12:26:53;3.17;;;1.33;;
36001;SDS011;22070;50.922;5.430;2023-04-23T12:29:25;4.00;;;1.30;;
36001;SDS011;22070;50.922;5.430;2023-04-23T12:31:56;6.35;;;1.05;;
36001;SDS011;22070;50.922;5.430;2023-04-23T12:34:23;8.77;;;1.30;;
36001;SDS011;22070;50.922;5.430;2023-04-23T12:36:51;3.37;;;1.10;;
36001;SDS011;22070;50.922;5.430;2023-04-23T12:39:32;6.03;;;1.23;;
36001;SDS011;22070;50.922;5.430;2023-04-23T12:41:59;4.05;;;0.95;;
36001;SDS011;22070;50.922;5.430;2023-04-23T12:44:29;4.80;;;1.42;;
36001;SDS011;22070;50.922;5.430;2023-04-23T12:46:56;4.88;;;1.33;;
36001;SDS011;22070;50.922;5.430;2023-04-23T12:49:23;5.20;;;1.15;;
36001;SDS011;22070;50.922;5.430;2023-04-23T12:51:48;4.40;;;1.37;;
36001;SDS011;22070;50.922;5.430;2023-04-23T12:54:14;5.10;;;1.33;;
36001;SDS011;22070;50.922;5.430;2023-04-23T12:56:40;2.70;;;0.93;;
36001;SDS011;22070;50.922;5.430;2023-04-23T12:59:06;3.67;;;0.83;;
36001;SDS011;22070;50.922;5.430;2023-04-23T13:01:32;5.35;;;0.98;;
36001;SDS011;22070;50.922;5.430;2023-04-23T13:03:57;5.03;;;1.10;;
36001;SDS011;22070;50.922;5.430;2023-04-23T13:06:23;2.93;;;0.77;;
36001;SDS011;22070;50.922;5.430;2023-04-23T13:08:50;7.50;;;1.25;;
36001;SDS011;22070;50.922;5.430;2023-04-23T13:11:16;3.28;;;1.15;;
36001;SDS011;22070;50.922;5.430;2023-04-23T13:13:42;5.50;;;1.40;;
36001;SDS011;22070;50.922;5.430;2023-04-23T13:16:07;4.37;;;1.13;;
36001;SDS011;22070;50.922;5.430;2023-04-23T13:18:33;7.87;;;1.30;;
36001;SDS011;22070;50.922;5.430;2023-04-23T13:20:58;5.07;;;1.30;;
36001;SDS011;22070;50.922;5.430;2023-04-23T13:23:24;2.60;;;1.07;;
36001;SDS011;22070;50.922;5.430;2023-04-23T13:25:50;4.40;;;1.10;;
36001;SDS011;22070;50.922;5.430;2023-04-23T13:28:16;3.57;;;1.20;;
36001;SDS011;22070;50.922;5.430;2023-04-23T13:30:41;5.13;;;1.20;;
36001;SDS011;22070;50.922;5.430;2023-04-23T13:33:07;6.57;;;1.87;;
36001;SDS011;22070;50.922;5.430;2023-04-23T13:35:33;6.03;;;1.70;;
36001;SDS011;22070;50.922;5.430;2023-04-23T13:38:01;4.32;;;1.42;;
36001;SDS011;22070;50.922;5.430;2023-04-23T13:40:27;3.67;;;1.40;;
36001;SDS011;22070;50.922;5.430;2023-04-23T13:42:53;3.53;;;1.63;;
36001;SDS011;22070;50.922;5.430;2023-04-23T13:45:19;4.17;;;1.60;;
36001;SDS011;22070;50.922;5.430;2023-04-23T13:47:44;1.73;;;1.23;;
36001;SDS011;22070;50.922;5.430;2023-04-23T13:50:10;2.90;;;1.27;;
36001;SDS011;22070;50.922;5.430;2023-04-23T13:52:36;2.23;;;1.00;;
36001;SDS011;22070;50.922;5.430;2023-04-23T13:57:31;3.40;;;1.70;;
36001;SDS011;22070;50.922;5.430;2023-04-23T13:59:57;9.18;;;1.55;;
36001;SDS011;22070;50.922;5.430;2023-04-23T14:04:50;5.77;;;1.30;;
36001;SDS011;22070;50.922;5.430;2023-04-23T14:07:15;4.70;;;1.33;;
36001;SDS011;22070;50.922;5.430;2023-04-23T14:09:41;4.77;;;1.60;;
36001;SDS011;22070;50.922;5.430;2023-04-23T14:12:07;3.50;;;1.20;;
36001;SDS011;22070;50.922;5.430;2023-04-23T14:14:33;5.00;;;1.75;;
36001;SDS011;22070;50.922;5.430;2023-04-23T14:16:59;4.47;;;1.37;;
36001;SDS011;22070;50.922;5.430;2023-04-23T14:19:25;5.55;;;1.38;;
36001;SDS011;22070;50.922;5.430;2023-04-23T14:21:51;4.40;;;1.60;;
36001;SDS011;22070;50.922;5.430;2023-04-23T14:24:38;4.37;;;1.77;;
36001;SDS011;22070;50.922;5.430;2023-04-23T14:27:09;4.57;;;1.55;;
36001;SDS011;22070;50.922;5.430;2023-04-23T14:29:39;3.67;;;1.60;;
36001;SDS011;22070;50.922;5.430;2023-04-23T14:32:26;2.67;;;1.63;;
36001;SDS011;22070;50.922;5.430;2023-04-23T14:34:52;3.33;;;1.40;;
36001;SDS011;22070;50.922;5.430;2023-04-23T14:37:17;5.63;;;1.57;;
36001;SDS011;22070;50.922;5.430;2023-04-23T14:39:43;2.50;;;1.20;;
36001;SDS011;22070;50.922;5.430;2023-04-23T14:42:10;4.55;;;1.70;;
36001;SDS011;22070;50.922;5.430;2023-04-23T14:44:36;3.70;;;1.97;;
36001;SDS011;22070;50.922;5.430;2023-04-23T14:47:02;3.47;;;1.67;;
36001;SDS011;22070;50.922;5.430;2023-04-23T14:49:27;7.67;;;1.07;;
36001;SDS011;22070;50.922;5.430;2023-04-23T14:51:53;3.73;;;1.73;;
36001;SDS011;22070;50.922;5.430;2023-04-23T14:54:19;2.93;;;1.73;;
36001;SDS011;22070;50.922;5.430;2023-04-23T14:56:45;7.72;;;1.25;;
36001;SDS011;22070;50.922;5.430;2023-04-23T14:59:11;5.23;;;1.70;;
36001;SDS011;22070;50.922;5.430;2023-04-23T15:01:37;13.67;;;4.67;;
36001;SDS011;22070;50.922;5.430;2023-04-23T15:04:03;3.73;;;1.60;;
36001;SDS011;22070;50.922;5.430;2023-04-23T15:06:29;2.50;;;1.17;;
36001;SDS011;22070;50.922;5.430;2023-04-23T15:08:55;3.50;;;1.17;;
36001;SDS011;22070;50.922;5.430;2023-04-23T15:11:21;2.03;;;1.40;;
36001;SDS011;22070;50.922;5.430;2023-04-23T15:16:43;2.95;;;1.52;;
36001;SDS011;22070;50.922;5.430;2023-04-23T15:19:09;7.10;;;1.80;;
36001;SDS011;22070;50.922;5.430;2023-04-23T15:21:35;5.47;;;1.40;;
36001;SDS011;22070;50.922;5.430;2023-04-23T15:24:01;2.63;;;1.67;;
36001;SDS011;22070;50.922;5.430;2023-04-23T15:26:27;2.60;;;1.63;;